Time;durP1;ratioP1;P1;durP2;ratioP2;P2;SDS_P1;SDS_P2;PMS_P1;PMS_P2;Temp;Humidity;BMP_temperature;BMP_pressure;BME280_temperature;BME280_humidity;BME280_pressure;Samples;Min_cycle;Max_cycle;Signal;HPM_P1;HPM_P2
2023/04/02 00:00:33;;;;;;;17.05;10.40;;;;;;;;;;4918750;28;20147;-67
2023/04/02 00:03:00;;;;;;;20.20;9.90;;;;;;;;;;4918221;28;20039;-67
2023/04/02 00:05:29;;;;;;;15.25;9.88;;;;;;;;;;4961621;28;21061;-67
2023/04/02 00:08:01;;;;;;;16.95;9.52;;;;;;;;;;4923642;28;20054;-67
2023/04/02 00:10:30;;;;;;;15.57;9.02;;;;;;;;;;4918864;28;20039;-66
2023/04/02 00:12:59;;;;;;;16.10;8.70;;;;;;;;;;4917762;28;20047;-66
2023/04/02 00:15:25;;;;;;;12.75;7.75;;;;;;;;;;4919480;28;20058;-66
2023/04/02 00:17:50;;;;;;;15.27;8.13;;;;;;;;;;4948416;28;20047;-66
2023/04/02 00:20:17;;;;;;;14.45;8.95;;;;;;;;;;4918387;28;20058;-67
2023/04/02 00:22:46;;;;;;;19.25;8.75;;;;;;;;;;4927900;28;20043;-66
2023/04/02 00:25:14;;;;;;;13.70;9.20;;;;;;;;;;4918361;28;20100;-66
2023/04/02 00:27:43;;;;;;;15.60;8.65;;;;;;;;;;4912774;28;20047;-67
2023/04/02 00:30:10;;;;;;;16.75;8.98;;;;;;;;;;4917551;28;20039;-67
2023/04/02 00:32:38;;;;;;;17.17;8.73;;;;;;;;;;4947205;28;20093;-67
2023/04/02 00:35:08;;;;;;;16.15;8.73;;;;;;;;;;4913372;28;20047;-67
2023/04/02 00:37:37;;;;;;;19.38;9.40;;;;;;;;;;4918563;28;20039;-66
2023/04/02 00:40:09;;;;;;;16.85;8.88;;;;;;;;;;4918687;28;20046;-66
2023/04/02 00:42:34;;;;;;;18.40;9.07;;;;;;;;;;4932521;28;20047;-67
2023/04/02 00:45:06;;;;;;;12.85;8.77;;;;;;;;;;4918047;28;20119;-67
2023/04/02 00:47:33;;;;;;;15.33;8.30;;;;;;;;;;4919052;28;20078;-65
2023/04/02 00:50:10;;;;;;;15.27;8.77;;;;;;;;;;4918563;28;20293;-68
2023/04/02 00:52:38;;;;;;;16.35;9.00;;;;;;;;;;4917447;28;20142;-66
2023/04/02 00:55:06;;;;;;;13.00;8.68;;;;;;;;;;4917897;28;20446;-66
2023/04/02 00:57:32;;;;;;;14.65;8.75;;;;;;;;;;4918872;28;20040;-66
2023/04/02 01:00:14;;;;;;;14.55;7.65;;;;;;;;;;4918662;28;20046;-69
2023/04/02 01:02:40;;;;;;;12.40;8.10;;;;;;;;;;4918391;28;20036;-66
2023/04/02 01:05:21;;;;;;;14.93;8.02;;;;;;;;;;4912835;28;20074;-65
2023/04/02 01:07:46;;;;;;;16.50;7.72;;;;;;;;;;4917743;28;20492;-66
2023/04/02 01:10:12;;;;;;;13.68;7.70;;;;;;;;;;4921840;28;20066;-66
2023/04/02 01:12:49;;;;;;;14.70;7.82;;;;;;;;;;4917822;28;20112;-66
2023/04/02 01:15:30;;;;;;;12.02;7.65;;;;;;;;;;4918596;28;20488;-66
2023/04/02 01:17:58;;;;;;;14.65;8.60;;;;;;;;;;4917710;28;20102;-66
2023/04/02 01:20:43;;;;;;;14.43;7.88;;;;;;;;;;4918121;28;20057;-66
2023/04/02 01:23:17;;;;;;;14.18;8.40;;;;;;;;;;4957019;28;20459;-66
2023/04/02 01:26:02;;;;;;;14.90;8.03;;;;;;;;;;4917687;28;20502;-66
2023/04/02 01:28:34;;;;;;;16.75;8.15;;;;;;;;;;4918246;28;20065;-67
2023/04/02 01:31:00;;;;;;;16.60;8.25;;;;;;;;;;4915865;28;20194;-67
2023/04/02 01:33:30;;;;;;;15.57;8.25;;;;;;;;;;4917340;28;20074;-66
2023/04/02 01:36:01;;;;;;;15.00;7.70;;;;;;;;;;4920680;28;20194;-65
2023/04/02 01:38:30;;;;;;;14.38;7.93;;;;;;;;;;4917754;28;20035;-67
2023/04/02 01:41:05;;;;;;;14.10;8.43;;;;;;;;;;4947826;28;20059;-65
2023/04/02 01:43:46;;;;;;;17.73;8.85;;;;;;;;;;4918171;28;20067;-66
2023/04/02 01:46:29;;;;;;;15.00;8.00;;;;;;;;;;4902403;28;21909;-66
2023/04/02 01:48:55;;;;;;;14.10;7.97;;;;;;;;;;4915793;28;20036;-67
2023/04/02 01:51:25;;;;;;;14.73;7.57;;;;;;;;;;4947048;28;20051;-66
2023/04/02 01:53:50;;;;;;;10.93;7.68;;;;;;;;;;4939798;28;20519;-66
2023/04/02 01:56:16;;;;;;;13.35;7.47;;;;;;;;;;4919300;28;20046;-65
2023/04/02 01:58:41;;;;;;;11.20;7.55;;;;;;;;;;4916194;28;20402;-65
2023/04/02 02:01:11;;;;;;;10.43;7.10;;;;;;;;;;4919732;28;20037;-66
2023/04/02 02:03:37;;;;;;;13.68;7.43;;;;;;;;;;4918343;28;20393;-66
2023/04/02 02:06:04;;;;;;;16.52;7.75;;;;;;;;;;4899818;28;20043;-67
2023/04/02 02:08:59;;;;;;;14.10;6.82;;;;;;;;;;4946809;28;20054;-66
2023/04/02 02:11:28;;;;;;;12.43;7.38;;;;;;;;;;4934165;28;20570;-65
2023/04/02 02:13:55;;;;;;;12.48;6.88;;;;;;;;;;4916008;28;20046;-66
2023/04/02 02:16:21;;;;;;;10.25;6.88;;;;;;;;;;4915318;28;20143;-66
2023/04/02 02:18:50;;;;;;;14.40;6.60;;;;;;;;;;4912439;28;20404;-69
2023/04/02 02:21:36;;;;;;;10.65;6.78;;;;;;;;;;4919702;28;20039;-67
2023/04/02 02:24:06;;;;;;;9.60;6.18;;;;;;;;;;4920450;28;20035;-66
2023/04/02 02:26:32;;;;;;;12.85;6.50;;;;;;;;;;4934560;28;20131;-69
2023/04/02 02:28:59;;;;;;;10.57;6.38;;;;;;;;;;5001222;28;20447;-66
2023/04/02 02:31:33;;;;;;;10.00;6.30;;;;;;;;;;4950635;28;20059;-66
2023/04/02 02:34:18;;;;;;;10.38;6.38;;;;;;;;;;4919702;28;20044;-67
2023/04/02 02:36:51;;;;;;;12.70;6.47;;;;;;;;;;4919319;28;20123;-67
2023/04/02 02:39:21;;;;;;;11.27;6.07;;;;;;;;;;4919927;28;20043;-66
2023/04/02 02:41:51;;;;;;;11.68;6.03;;;;;;;;;;4918449;28;20147;-68
2023/04/02 02:44:19;;;;;;;13.60;6.60;;;;;;;;;;4914990;28;20433;-67
2023/04/02 02:47:05;;;;;;;9.98;6.70;;;;;;;;;;4920367;28;20040;-67
2023/04/02 02:49:32;;;;;;;10.88;6.40;;;;;;;;;;4911316;28;20047;-67
2023/04/02 02:51:57;;;;;;;9.95;6.65;;;;;;;;;;4948695;28;20066;-67
2023/04/02 02:54:26;;;;;;;13.18;6.60;;;;;;;;;;4921043;28;20159;-66
2023/04/02 02:56:54;;;;;;;12.38;6.50;;;;;;;;;;4920731;28;20051;-67
2023/04/02 02:59:20;;;;;;;10.48;7.07;;;;;;;;;;4919414;28;20498;-66
2023/04/02 03:01:46;;;;;;;11.27;6.80;;;;;;;;;;4919788;28;20088;-67
2023/04/02 03:04:11;;;;;;;10.60;6.50;;;;;;;;;;4917633;28;20047;-66
2023/04/02 03:06:39;;;;;;;12.95;6.88;;;;;;;;;;4919882;28;20039;-66
2023/04/02 03:09:04;;;;;;;11.48;6.63;;;;;;;;;;4917916;28;20527;-67
2023/04/02 03:11:42;;;;;;;10.90;6.72;;;;;;;;;;4920429;28;20050;-67
2023/04/02 03:14:33;;;;;;;11.73;6.97;;;;;;;;;;4920118;28;20062;-66
2023/04/02 03:17:09;;;;;;;10.98;6.32;;;;;;;;;;4911268;28;20199;-66
2023/04/02 03:19:34;;;;;;;11.73;7.18;;;;;;;;;;4949559;28;20044;-66
2023/04/02 03:22:15;;;;;;;11.63;7.03;;;;;;;;;;4918237;28;20580;-66
2023/04/02 03:25:00;;;;;;;10.25;6.90;;;;;;;;;;5001281;28;20090;-67
2023/04/02 03:27:33;;;;;;;11.40;6.70;;;;;;;;;;4917724;28;20510;-67
2023/04/02 03:30:17;;;;;;;11.48;7.00;;;;;;;;;;4912853;28;20039;-66
2023/04/02 03:32:46;;;;;;;12.32;7.30;;;;;;;;;;4913458;28;20063;-66
2023/04/02 03:35:19;;;;;;;14.50;7.10;;;;;;;;;;4920073;28;20702;-66
2023/04/02 03:37:51;;;;;;;12.55;7.35;;;;;;;;;;4918493;28;20507;-67
2023/04/02 03:40:36;;;;;;;17.60;7.05;;;;;;;;;;4914242;28;20039;-66
2023/04/02 03:43:01;;;;;;;14.10;7.70;;;;;;;;;;4918962;28;20042;-66
2023/04/02 03:45:28;;;;;;;10.82;7.22;;;;;;;;;;4920086;28;20747;-67
2023/04/02 03:47:57;;;;;;;15.32;7.95;;;;;;;;;;4919242;28;20469;-66
2023/04/02 03:50:34;;;;;;;13.90;7.55;;;;;;;;;;4919874;28;20217;-66
2023/04/02 03:53:00;;;;;;;13.63;7.45;;;;;;;;;;4919074;28;20074;-66
2023/04/02 03:55:28;;;;;;;15.00;7.45;;;;;;;;;;4918612;28;20440;-66
2023/04/02 03:58:00;;;;;;;11.82;7.32;;;;;;;;;;4920500;28;20036;-66
2023/04/02 04:00:46;;;;;;;11.63;7.20;;;;;;;;;;4919552;28;20182;-66
2023/04/02 04:03:18;;;;;;;13.52;6.97;;;;;;;;;;4919619;28;20664;-66
2023/04/02 04:05:51;;;;;;;13.02;7.13;;;;;;;;;;4919049;28;20450;-66
2023/04/02 04:08:20;;;;;;;13.55;7.38;;;;;;;;;;4918377;28;20043;-66
2023/04/02 04:10:50;;;;;;;13.90;7.60;;;;;;;;;;4918071;28;20266;-66
2023/04/02 04:13:17;;;;;;;11.75;6.47;;;;;;;;;;4947067;28;20501;-66
2023/04/02 04:15:55;;;;;;;16.80;7.88;;;;;;;;;;4918532;28;20047;-66
2023/04/02 04:18:39;;;;;;;13.15;7.13;;;;;;;;;;4906152;28;20046;-66
2023/04/02 04:21:14;;;;;;;12.63;6.60;;;;;;;;;;4918353;28;20040;-66
2023/04/02 04:23:40;;;;;;;13.23;6.80;;;;;;;;;;4919506;28;20120;-66
2023/04/02 04:26:11;;;;;;;12.73;7.07;;;;;;;;;;4919635;28;20063;-66
2023/04/02 04:28:57;;;;;;;12.32;6.78;;;;;;;;;;4919217;28;20039;-66
2023/04/02 04:31:45;;;;;;;13.25;6.97;;;;;;;;;;4919019;28;20133;-67
2023/04/02 04:34:35;;;;;;;12.75;6.88;;;;;;;;;;4909393;28;20482;-67
2023/04/02 04:37:02;;;;;;;11.23;6.75;;;;;;;;;;4918623;28;20496;-66
2023/04/02 04:39:41;;;;;;;10.88;6.50;;;;;;;;;;4947700;28;20041;-66
2023/04/02 04:42:06;;;;;;;10.48;5.80;;;;;;;;;;4914957;28;20062;-66
2023/04/02 04:44:37;;;;;;;12.13;6.43;;;;;;;;;;4918469;28;21743;-67
2023/04/02 04:47:09;;;;;;;10.82;5.78;;;;;;;;;;4918967;28;20047;-67
2023/04/02 04:49:34;;;;;;;11.80;6.13;;;;;;;;;;4917483;28;20053;-67
2023/04/02 04:52:05;;;;;;;9.75;5.40;;;;;;;;;;4917728;28;20295;-67
2023/04/02 04:54:30;;;;;;;12.30;5.80;;;;;;;;;;4947355;28;20306;-67
2023/04/02 04:57:01;;;;;;;9.70;5.40;;;;;;;;;;4918619;28;20294;-67
2023/04/02 04:59:29;;;;;;;10.13;5.65;;;;;;;;;;4932523;28;20340;-67
2023/04/02 05:01:58;;;;;;;9.00;5.10;;;;;;;;;;4916694;28;20761;-66
2023/04/02 05:04:44;;;;;;;10.93;5.25;;;;;;;;;;4918132;28;20043;-66
2023/04/02 05:07:28;;;;;;;10.13;5.55;;;;;;;;;;4917901;28;20432;-67
2023/04/02 05:09:57;;;;;;;7.63;4.88;;;;;;;;;;4918114;28;20093;-66
2023/04/02 05:12:43;;;;;;;12.65;5.38;;;;;;;;;;4946473;28;20061;-66
2023/04/02 05:15:20;;;;;;;11.88;5.40;;;;;;;;;;4917434;28;20478;-66
2023/04/02 05:17:58;;;;;;;8.07;4.45;;;;;;;;;;4918133;28;20404;-66
2023/04/02 05:20:25;;;;;;;10.02;4.95;;;;;;;;;;4916555;28;20054;-67
2023/04/02 05:22:59;;;;;;;10.02;4.75;;;;;;;;;;4948261;28;20043;-66
2023/04/02 05:25:28;;;;;;;7.72;3.88;;;;;;;;;;4916292;28;20225;-67
2023/04/02 05:27:53;;;;;;;9.57;4.88;;;;;;;;;;4918593;28;20039;-67
2023/04/02 05:30:27;;;;;;;8.77;4.45;;;;;;;;;;4918637;28;20547;-67
2023/04/02 05:32:59;;;;;;;10.73;4.72;;;;;;;;;;4912441;28;20051;-67
2023/04/02 05:35:30;;;;;;;8.30;4.10;;;;;;;;;;4917717;28;20051;-68
2023/04/02 05:37:56;;;;;;;9.95;4.32;;;;;;;;;;4916262;28;20504;-68
2023/04/02 05:40:25;;;;;;;8.55;3.75;;;;;;;;;;4917888;28;20048;-68
2023/04/02 05:42:54;;;;;;;8.23;3.80;;;;;;;;;;4917495;28;20059;-67
2023/04/02 05:45:45;;;;;;;7.32;3.65;;;;;;;;;;4918714;28;20079;-67
2023/04/02 05:48:15;;;;;;;8.15;3.45;;;;;;;;;;4913995;28;20051;-67
2023/04/02 05:50:42;;;;;;;7.38;3.80;;;;;;;;;;4911636;28;20040;-67
2023/04/02 05:53:10;;;;;;;13.48;4.07;;;;;;;;;;4917717;28;20086;-68
2023/04/02 05:55:39;;;;;;;7.10;3.65;;;;;;;;;;4920562;28;20031;-68
2023/04/02 05:58:07;;;;;;;9.75;3.83;;;;;;;;;;4921709;28;20040;-68
2023/04/02 06:00:38;;;;;;;6.20;3.95;;;;;;;;;;4919891;28;20043;-67
2023/04/02 06:03:06;;;;;;;5.30;3.05;;;;;;;;;;4920130;28;20040;-67
2023/04/02 06:05:34;;;;;;;6.75;3.03;;;;;;;;;;4922348;28;20045;-68
2023/04/02 06:08:09;;;;;;;8.00;3.42;;;;;;;;;;4928952;28;20043;-67
2023/04/02 06:10:44;;;;;;;8.00;2.90;;;;;;;;;;4919658;28;20035;-67
2023/04/02 06:13:13;;;;;;;4.93;2.45;;;;;;;;;;4920762;28;20047;-67
2023/04/02 06:15:38;;;;;;;6.75;2.38;;;;;;;;;;4919544;28;20130;-67
2023/04/02 06:18:04;;;;;;;7.60;2.60;;;;;;;;;;4921116;28;20506;-68
2023/04/02 06:20:29;;;;;;;6.15;2.35;;;;;;;;;;4921421;28;20126;-66
2023/04/02 06:22:59;;;;;;;7.78;2.75;;;;;;;;;;4950771;28;20114;-68
2023/04/02 06:25:29;;;;;;;5.18;2.15;;;;;;;;;;4921138;28;20035;-69
2023/04/02 06:27:56;;;;;;;6.50;2.38;;;;;;;;;;4921338;28;20118;-67
2023/04/02 06:30:24;;;;;;;7.95;2.28;;;;;;;;;;4935684;28;20039;-67
2023/04/02 06:32:52;;;;;;;8.93;2.33;;;;;;;;;;4920190;28;20051;-67
2023/04/02 06:35:17;;;;;;;6.18;2.10;;;;;;;;;;4921400;28;20146;-67
2023/04/02 06:37:45;;;;;;;5.95;2.05;;;;;;;;;;4920952;28;20108;-67
2023/04/02 06:40:23;;;;;;;7.15;2.08;;;;;;;;;;4920307;28;20249;-68
2023/04/02 06:42:51;;;;;;;8.07;2.38;;;;;;;;;;4949695;28;20039;-67
2023/04/02 06:45:22;;;;;;;5.28;1.92;;;;;;;;;;4919922;28;20066;-67
2023/04/02 06:47:49;;;;;;;8.27;2.60;;;;;;;;;;4920076;28;20040;-68
2023/04/02 06:50:17;;;;;;;5.38;1.90;;;;;;;;;;4950081;28;20133;-68
2023/04/02 06:53:05;;;;;;;11.70;3.45;;;;;;;;;;4918135;28;20134;-67
2023/04/02 06:55:49;;;;;;;6.43;1.92;;;;;;;;;;4919717;28;20184;-67
2023/04/02 06:58:16;;;;;;;6.20;1.70;;;;;;;;;;4919990;28;20918;-67
2023/04/02 07:00:43;;;;;;;7.70;1.80;;;;;;;;;;4923179;28;20052;-67
2023/04/02 07:03:27;;;;;;;8.25;2.20;;;;;;;;;;4920267;28;20062;-66
2023/04/02 07:05:53;;;;;;;7.93;2.10;;;;;;;;;;4919517;28;20039;-67
2023/04/02 07:08:21;;;;;;;4.22;2.13;;;;;;;;;;4919564;28;21771;-67
2023/04/02 07:10:49;;;;;;;8.15;2.22;;;;;;;;;;4933859;28;20485;-67
2023/04/02 07:13:16;;;;;;;9.82;2.50;;;;;;;;;;4919755;28;20419;-67
2023/04/02 07:15:41;;;;;;;12.20;2.10;;;;;;;;;;4950127;28;20104;-67
2023/04/02 07:18:13;;;;;;;4.38;2.10;;;;;;;;;;4922822;28;20494;-67
2023/04/02 07:20:40;;;;;;;6.60;2.13;;;;;;;;;;4921093;28;20047;-67
2023/04/02 07:23:05;;;;;;;6.03;1.88;;;;;;;;;;4918794;28;22317;-67
2023/04/02 07:25:31;;;;;;;7.15;1.80;;;;;;;;;;4920525;28;20383;-68
2023/04/02 07:27:56;;;;;;;7.78;2.38;;;;;;;;;;4919848;28;21966;-66
2023/04/02 07:30:21;;;;;;;5.85;2.13;;;;;;;;;;4909081;28;20046;-66
2023/04/02 07:32:47;;;;;;;6.07;1.80;;;;;;;;;;4917121;28;20516;-67
2023/04/02 07:35:12;;;;;;;4.65;2.10;;;;;;;;;;4918356;28;20043;-68
2023/04/02 07:37:38;;;;;;;4.78;1.80;;;;;;;;;;4920127;28;20042;-67
2023/04/02 07:40:17;;;;;;;6.05;2.38;;;;;;;;;;4919546;28;20043;-68
2023/04/02 07:42:42;;;;;;;7.72;1.95;;;;;;;;;;4919814;28;20046;-67
2023/04/02 07:45:11;;;;;;;9.68;2.05;;;;;;;;;;4918014;28;20039;-66
2023/04/02 07:47:37;;;;;;;7.40;2.38;;;;;;;;;;4904028;28;20050;-68
2023/04/02 07:50:02;;;;;;;7.40;2.00;;;;;;;;;;4919679;28;20150;-67
2023/04/02 07:52:28;;;;;;;5.07;2.00;;;;;;;;;;4918658;28;20067;-67
2023/04/02 07:54:53;;;;;;;7.20;2.17;;;;;;;;;;4920222;28;20147;-67
2023/04/02 07:57:18;;;;;;;7.30;2.10;;;;;;;;;;4918870;28;20050;-68
2023/04/02 07:59:44;;;;;;;6.07;1.80;;;;;;;;;;4920040;28;20043;-66
2023/04/02 08:02:19;;;;;;;6.03;2.13;;;;;;;;;;4918540;28;20040;-66
2023/04/02 08:04:45;;;;;;;3.97;1.60;;;;;;;;;;4919328;28;20120;-67
2023/04/02 08:07:10;;;;;;;5.40;1.90;;;;;;;;;;4919187;28;20641;-67
2023/04/02 08:09:38;;;;;;;11.55;2.03;;;;;;;;;;4948547;28;20403;-65
2023/04/02 08:12:05;;;;;;;6.50;1.70;;;;;;;;;;4928755;28;20502;-68
2023/04/02 08:14:30;;;;;;;7.72;2.03;;;;;;;;;;4919183;28;20043;-67
2023/04/02 08:16:55;;;;;;;5.10;1.98;;;;;;;;;;4918910;28;20043;-66
2023/04/02 08:19:21;;;;;;;7.88;1.73;;;;;;;;;;4918743;28;20048;-65
2023/04/02 08:21:49;;;;;;;8.18;1.80;;;;;;;;;;4922964;28;20043;-66
2023/04/02 08:24:20;;;;;;;7.90;2.20;;;;;;;;;;4947605;28;20045;-66
2023/04/02 08:26:48;;;;;;;5.38;1.75;;;;;;;;;;4918167;28;20391;-66
2023/04/02 08:29:14;;;;;;;3.95;1.65;;;;;;;;;;4918931;28;20043;-65
2023/04/02 08:31:39;;;;;;;6.40;1.90;;;;;;;;;;4919065;28;20409;-66
2023/04/02 08:34:10;;;;;;;4.53;1.42;;;;;;;;;;4918648;28;20420;-65
2023/04/02 08:36:37;;;;;;;7.75;2.50;;;;;;;;;;4919677;28;20786;-67
2023/04/02 08:39:03;;;;;;;4.90;1.60;;;;;;;;;;4912431;28;20165;-65
2023/04/02 08:41:33;;;;;;;7.65;1.92;;;;;;;;;;4918896;28;20045;-66
2023/04/02 08:44:09;;;;;;;6.53;1.60;;;;;;;;;;4927969;28;20043;-65
2023/04/02 08:46:55;;;;;;;5.88;1.85;;;;;;;;;;4928731;28;20121;-66
2023/04/02 08:49:27;;;;;;;6.50;1.67;;;;;;;;;;4919934;28;20039;-66
2023/04/02 08:51:53;;;;;;;5.32;1.90;;;;;;;;;;4966043;28;20465;-65
2023/04/02 08:54:24;;;;;;;4.30;1.40;;;;;;;;;;4921345;28;20039;-65
2023/04/02 08:57:00;;;;;;;3.50;1.40;;;;;;;;;;4920682;28;20081;-66
2023/04/02 08:59:38;;;;;;;2.83;1.42;;;;;;;;;;4919750;28;22041;-66
2023/04/02 09:02:22;;;;;;;5.15;1.63;;;;;;;;;;4916622;28;20083;-65
2023/04/02 09:04:50;;;;;;;5.38;1.50;;;;;;;;;;4918457;28;20109;-66
2023/04/02 09:07:16;;;;;;;5.15;1.88;;;;;;;;;;4919158;28;20039;-64
2023/04/02 09:09:42;;;;;;;5.35;1.48;;;;;;;;;;4918278;28;20035;-67
2023/04/02 09:12:33;;;;;;;3.70;1.33;;;;;;;;;;4917846;28;20052;-65
2023/04/02 09:15:13;;;;;;;5.77;1.70;;;;;;;;;;4919342;28;20043;-65
2023/04/02 09:17:40;;;;;;;4.65;1.50;;;;;;;;;;4917649;28;20039;-66
2023/04/02 09:20:17;;;;;;;6.88;1.60;;;;;;;;;;4918938;28;20069;-66
2023/04/02 09:22:47;;;;;;;5.38;1.65;;;;;;;;;;4917738;28;20122;-67
2023/04/02 09:25:15;;;;;;;4.95;1.52;;;;;;;;;;4931906;28;20999;-65
2023/04/02 09:27:41;;;;;;;6.20;1.50;;;;;;;;;;4915925;28;20043;-65
2023/04/02 09:30:20;;;;;;;7.97;1.50;;;;;;;;;;4922207;28;20066;-67
2023/04/02 09:32:45;;;;;;;6.55;1.77;;;;;;;;;;4923439;28;20056;-65
2023/04/02 09:35:15;;;;;;;6.18;1.80;;;;;;;;;;4935629;28;20118;-66
2023/04/02 09:37:41;;;;;;;4.50;1.73;;;;;;;;;;4920898;28;20047;-66
2023/04/02 09:40:24;;;;;;;4.68;1.48;;;;;;;;;;4917325;28;20042;-65
2023/04/02 09:43:00;;;;;;;5.45;1.30;;;;;;;;;;4920630;28;20471;-65
2023/04/02 09:45:27;;;;;;;5.22;1.40;;;;;;;;;;4921383;28;20048;-65
2023/04/02 09:47:56;;;;;;;4.93;1.52;;;;;;;;;;4920726;28;20212;-65
2023/04/02 09:50:25;;;;;;;7.57;1.90;;;;;;;;;;4921875;28;20509;-64
2023/04/02 09:52:51;;;;;;;5.07;1.75;;;;;;;;;;4921887;28;20537;-67
2023/04/02 09:55:18;;;;;;;5.32;1.30;;;;;;;;;;4919514;28;20047;-65
2023/04/02 09:57:47;;;;;;;6.72;1.73;;;;;;;;;;4923122;28;20216;-66
2023/04/02 10:00:12;;;;;;;3.47;1.55;;;;;;;;;;4924421;28;20054;-67
2023/04/02 10:02:40;;;;;;;6.18;1.63;;;;;;;;;;4920745;28;20050;-65
2023/04/02 10:05:11;;;;;;;3.38;1.38;;;;;;;;;;4921490;28;20047;-66
2023/04/02 10:07:36;;;;;;;4.72;1.50;;;;;;;;;;4921805;28;20485;-66
2023/04/02 10:10:14;;;;;;;3.30;1.70;;;;;;;;;;4919886;28;20039;-66
2023/04/02 10:12:43;;;;;;;5.65;1.40;;;;;;;;;;4920160;28;20051;-66
2023/04/02 10:15:14;;;;;;;4.20;1.42;;;;;;;;;;4920904;28;20169;-65
2023/04/02 10:17:41;;;;;;;4.57;1.50;;;;;;;;;;4920154;28;20241;-67
2023/04/02 10:20:18;;;;;;;5.18;1.45;;;;;;;;;;4921181;28;20105;-66
2023/04/02 10:22:44;;;;;;;5.28;1.50;;;;;;;;;;4921165;28;20039;-65
2023/04/02 10:25:16;;;;;;;4.72;1.80;;;;;;;;;;4921083;28;20096;-65
2023/04/02 10:27:41;;;;;;;;;;;;;;;;;;4920575;28;20260;-65
2023/04/02 10:30:16;;;;;;;4.60;1.98;;;;;;;;;;4920493;28;19915;-66
2023/04/02 10:32:44;;;;;;;4.63;1.70;;;;;;;;;;4919700;28;21033;-65
2023/04/02 10:35:27;;;;;;;5.22;1.70;;;;;;;;;;4914863;28;20586;-67
2023/04/02 10:37:55;;;;;;;5.60;1.70;;;;;;;;;;4920250;28;20498;-66
2023/04/02 10:40:29;;;;;;;4.72;1.48;;;;;;;;;;4948811;28;20043;-64
2023/04/02 10:43:33;;;;;;;7.45;1.40;;;;;;;;;;4919975;28;20031;-66
2023/04/02 10:45:58;;;;;;;4.25;1.70;;;;;;;;;;4947637;28;20130;-66
2023/04/02 10:48:38;;;;;;;5.50;1.52;;;;;;;;;;4919342;28;20039;-64
2023/04/02 10:51:06;;;;;;;4.80;1.40;;;;;;;;;;4920768;28;20244;-67
2023/04/02 10:53:36;;;;;;;4.38;1.40;;;;;;;;;;4898734;28;20048;-66
2023/04/02 10:56:04;;;;;;;6.65;2.05;;;;;;;;;;4934852;28;20048;-65
2023/04/02 10:58:32;;;;;;;7.00;1.65;;;;;;;;;;4920394;28;20217;-66
2023/04/02 11:01:00;;;;;;;6.85;1.65;;;;;;;;;;4928893;28;20039;-65
2023/04/02 11:03:28;;;;;;;6.55;1.90;;;;;;;;;;4918868;28;20364;-65
2023/04/02 11:05:56;;;;;;;4.25;1.20;;;;;;;;;;4920242;28;20040;-66
2023/04/02 11:08:26;;;;;;;4.20;1.45;;;;;;;;;;4971673;28;20033;-67
2023/04/02 11:11:02;;;;;;;3.63;1.52;;;;;;;;;;4920008;28;20047;-65
2023/04/02 11:13:30;;;;;;;6.03;1.55;;;;;;;;;;4949089;28;20201;-65
2023/04/02 11:15:55;;;;;;;4.68;1.38;;;;;;;;;;4919964;28;20585;-64
2023/04/02 11:18:34;;;;;;;3.42;1.50;;;;;;;;;;4918106;28;20036;-66
2023/04/02 11:21:06;;;;;;;5.30;1.77;;;;;;;;;;4919951;28;20120;-66
2023/04/02 11:23:32;;;;;;;;;;;;;;;;;;4949675;28;20039;-65
2023/04/02 11:26:16;;;;;;;4.95;1.80;;;;;;;;;;4920700;28;20853;-67
2023/04/02 11:28:42;;;;;;;5.13;1.50;;;;;;;;;;4919666;28;20145;-65
2023/04/02 11:31:09;;;;;;;4.47;1.63;;;;;;;;;;4917612;28;20042;-66
2023/04/02 11:33:34;;;;;;;4.20;1.42;;;;;;;;;;4923542;28;20059;-66
2023/04/02 11:36:01;;;;;;;5.30;1.50;;;;;;;;;;4919777;28;20056;-64
2023/04/02 11:38:26;;;;;;;5.28;2.10;;;;;;;;;;4919618;28;20032;-65
2023/04/02 11:40:55;;;;;;;5.95;1.70;;;;;;;;;;4919577;28;20089;-66
2023/04/02 11:43:33;;;;;;;6.30;1.50;;;;;;;;;;4919905;28;21112;-66
2023/04/02 11:46:04;;;;;;;5.18;1.88;;;;;;;;;;4919631;28;20034;-66
2023/04/02 11:48:32;;;;;;;3.53;1.35;;;;;;;;;;4919903;28;20047;-65
2023/04/02 11:51:03;;;;;;;5.90;1.48;;;;;;;;;;4919071;28;20058;-65
2023/04/02 11:53:33;;;;;;;4.25;1.30;;;;;;;;;;4919909;28;20043;-66
2023/04/02 11:56:10;;;;;;;2.22;1.23;;;;;;;;;;4919213;28;20035;-65
2023/04/02 11:58:51;;;;;;;7.45;1.75;;;;;;;;;;4919894;28;20039;-66
2023/04/02 12:01:21;;;;;;;4.18;1.60;;;;;;;;;;4918243;28;20050;-67
2023/04/02 12:04:08;;;;;;;5.57;1.67;;;;;;;;;;4918466;28;20055;-66
2023/04/02 12:06:46;;;;;;;7.88;1.95;;;;;;;;;;4919083;28;20489;-66
2023/04/02 12:09:20;;;;;;;4.60;1.50;;;;;;;;;;4944678;28;20045;-67
2023/04/02 12:11:46;;;;;;;5.22;1.48;;;;;;;;;;4919079;28;20367;-65
2023/04/02 12:14:30;;;;;;;4.53;1.70;;;;;;;;;;4925345;28;20627;-67
2023/04/02 12:16:56;;;;;;;4.53;1.67;;;;;;;;;;4921966;28;20035;-66
2023/04/02 12:19:22;;;;;;;5.35;2.42;;;;;;;;;;4918919;28;20108;-66
2023/04/02 12:21:47;;;;;;;3.75;1.80;;;;;;;;;;4961126;28;20134;-65
2023/04/02 12:24:20;;;;;;;6.40;2.30;;;;;;;;;;4918991;28;20039;-67
2023/04/02 12:26:46;;;;;;;6.45;2.40;;;;;;;;;;4917886;28;20568;-66
2023/04/02 12:29:29;;;;;;;4.55;1.48;;;;;;;;;;4931750;28;20040;-66
2023/04/02 12:31:58;;;;;;;5.30;1.77;;;;;;;;;;4895696;28;20093;-70
2023/04/02 12:34:25;;;;;;;3.88;1.85;;;;;;;;;;4947462;28;20039;-71
2023/04/02 12:36:54;;;;;;;6.88;2.58;;;;;;;;;;4918623;28;20062;-70
2023/04/02 12:39:20;;;;;;;5.60;1.90;;;;;;;;;;4918532;28;20059;-71
2023/04/02 12:41:45;;;;;;;5.53;1.73;;;;;;;;;;4919125;28;20380;-70
2023/04/02 12:44:17;;;;;;;3.75;1.90;;;;;;;;;;4921880;28;20089;-70
2023/04/02 12:46:45;;;;;;;4.72;1.60;;;;;;;;;;4927978;28;20039;-73
2023/04/02 12:49:13;;;;;;;5.47;1.40;;;;;;;;;;4919776;28;20062;-72
2023/04/02 12:51:41;;;;;;;6.10;2.50;;;;;;;;;;4936147;28;20189;-70
2023/04/02 12:54:11;;;;;;;4.43;2.40;;;;;;;;;;4919427;28;20042;-70
2023/04/02 12:56:37;;;;;;;4.97;1.73;;;;;;;;;;4931771;28;20039;-70
2023/04/02 12:59:02;;;;;;;3.00;1.23;;;;;;;;;;4922043;28;20043;-72
2023/04/02 13:01:28;;;;;;;3.85;1.50;;;;;;;;;;4920567;28;20036;-73
2023/04/02 13:04:13;;;;;;;4.05;1.60;;;;;;;;;;4915405;28;20377;-71
2023/04/02 13:06:40;;;;;;;3.92;1.65;;;;;;;;;;4917338;28;20036;-71
2023/04/02 13:09:24;;;;;;;4.38;1.48;;;;;;;;;;4919093;28;20641;-68
2023/04/02 13:11:52;;;;;;;4.85;1.55;;;;;;;;;;4927803;28;20058;-72
2023/04/02 13:14:19;;;;;;;3.95;1.40;;;;;;;;;;4915747;28;20567;-72
2023/04/02 13:16:44;;;;;;;2.92;1.13;;;;;;;;;;4912980;28;20039;-70
2023/04/02 13:19:17;;;;;;;3.63;1.50;;;;;;;;;;4932028;28;20063;-72
2023/04/02 13:21:43;;;;;;;5.30;1.67;;;;;;;;;;4947038;28;20119;-72
2023/04/02 13:24:28;;;;;;;4.28;1.50;;;;;;;;;;4917690;28;20116;-71
2023/04/02 13:26:55;;;;;;;4.55;1.55;;;;;;;;;;4917753;28;20031;-72
2023/04/02 13:29:23;;;;;;;6.63;2.13;;;;;;;;;;4946729;28;20042;-72
2023/04/02 13:31:49;;;;;;;3.28;1.25;;;;;;;;;;4917970;28;20630;-72
2023/04/02 13:34:17;;;;;;;3.15;1.30;;;;;;;;;;4917410;28;20054;-72
2023/04/02 13:36:42;;;;;;;5.03;1.50;;;;;;;;;;4917388;28;20242;-71
2023/04/02 13:39:08;;;;;;;5.90;1.33;;;;;;;;;;4947279;28;20063;-72
2023/04/02 13:41:35;;;;;;;4.45;1.33;;;;;;;;;;4917724;28;20452;-71
2023/04/02 13:44:02;;;;;;;6.60;1.65;;;;;;;;;;4917871;28;20031;-69
2023/04/02 13:46:31;;;;;;;4.30;1.40;;;;;;;;;;4918272;28;21574;-69
2023/04/02 13:48:57;;;;;;;2.63;1.30;;;;;;;;;;4918234;28;21865;-72
2023/04/02 13:51:23;;;;;;;4.65;1.40;;;;;;;;;;4916632;28;20023;-70
2023/04/02 13:53:52;;;;;;;3.45;1.10;;;;;;;;;;4916450;28;20051;-71
2023/04/02 13:56:18;;;;;;;3.75;1.52;;;;;;;;;;4945944;28;20467;-72
2023/04/02 13:58:44;;;;;;;4.05;1.40;;;;;;;;;;4917222;28;20031;-71
2023/04/02 14:01:13;;;;;;;3.42;1.30;;;;;;;;;;4919716;28;20050;-71
2023/04/02 14:03:38;;;;;;;2.83;1.13;;;;;;;;;;4917117;28;20043;-71
2023/04/02 14:06:16;;;;;;;3.28;1.25;;;;;;;;;;4918524;28;20040;-71
2023/04/02 14:08:47;;;;;;;3.30;1.50;;;;;;;;;;4917144;28;20043;-71
2023/04/02 14:11:16;;;;;;;4.30;1.63;;;;;;;;;;4918261;28;20469;-72
2023/04/02 14:13:47;;;;;;;8.73;1.50;;;;;;;;;;4913330;28;20055;-71
2023/04/02 14:16:21;;;;;;;6.55;1.67;;;;;;;;;;4919317;28;20077;-69
2023/04/02 14:19:06;;;;;;;3.03;1.50;;;;;;;;;;4920827;28;20039;-71
2023/04/02 14:21:37;;;;;;;3.47;1.20;;;;;;;;;;4885042;28;20473;-71
2023/04/02 14:24:17;;;;;;;3.28;1.30;;;;;;;;;;4919306;28;20732;-71
2023/04/02 14:26:45;;;;;;;3.67;1.52;;;;;;;;;;4920889;28;20038;-70
2023/04/02 14:29:31;;;;;;;3.53;1.40;;;;;;;;;;4922276;28;20036;-69
2023/04/02 14:32:16;;;;;;;3.95;1.35;;;;;;;;;;4920327;28;20465;-72
2023/04/02 14:35:00;;;;;;;4.43;1.33;;;;;;;;;;4950633;28;20035;-72
2023/04/02 14:37:32;;;;;;;4.80;1.50;;;;;;;;;;4920109;28;20050;-71
2023/04/02 14:40:21;;;;;;;3.13;1.20;;;;;;;;;;4918466;28;20039;-71
2023/04/02 14:42:52;;;;;;;4.15;1.50;;;;;;;;;;4951588;28;20039;-71
2023/04/02 14:45:27;;;;;;;4.28;1.25;;;;;;;;;;4921458;28;20635;-73
2023/04/02 14:47:59;;;;;;;3.90;1.40;;;;;;;;;;4914275;28;20209;-72
2023/04/02 14:50:37;;;;;;;3.80;1.27;;;;;;;;;;4919525;28;20345;-71
2023/04/02 14:53:07;;;;;;;4.63;1.10;;;;;;;;;;4914041;28;20456;-72
2023/04/02 14:55:38;;;;;;;4.82;1.40;;;;;;;;;;5001463;28;20060;-70
2023/04/02 14:58:08;;;;;;;4.30;1.15;;;;;;;;;;4920639;28;20194;-70
2023/04/02 15:00:35;;;;;;;3.67;1.17;;;;;;;;;;4920452;28;20463;-72